Dades meteomassalio
Diari Summary for Febrer 22, 2017 Units:  Metric    English   Both
« Previous Day
Next Day »
Diari Semanal Mensual Anual Personalitzat
  Maxima: Minima: Mijana:
Temperatura: -17.8 °C -17.1 °C -13.1 °C
Rosada: -17.8 °C -17.7 °C -15.6 °C
Humitat: Humidity % 48 % 76 %
Velocitat del vent: 0 km/h 0 km/h 2.4 km/h
Racha vent: 0 km/h - -
Vent:- - ENE
Pressio: 0 hPa 34554.1 hPa -
Pluja: 7.62 mm    
Historical Graphs
 
 
Tabular Data for Febrer 22, 2017
Time Temperature Dew Point Pressure Wind Wind Speed Wind Gust Humidity Rainfall Rate (Hourly) solar Conditions
-17.8 °C -17.8 °C 0 hPa Calm     Humidity % 0 mm SolarRadiationWatts/m^2 W/m2 Conditions
00:04 -15.9 °C -16.7 °C 34740.4 hPa Calm     90 % 0 mm 0.0 W/m2 RA
00:09 -15.9 °C -16.7 °C 34740.4 hPa Calm     90 % 0 mm 0.0 W/m2 CLR
00:14 -15.9 °C -16.8 °C 34750.5 hPa Calm     90 % 0 mm 0.0 W/m2 CLR
00:19 -16.1 °C -17 °C 34750.5 hPa Calm     89 % 0 mm 0.0 W/m2 CLR
00:24 -16.1 °C -16.9 °C 34750.5 hPa Calm     90 % 0 mm 0.0 W/m2 CLR
00:29 -16.1 °C -16.9 °C 34750.5 hPa Calm     90 % 0 mm 0.0 W/m2 CLR
00:34 -16.1 °C -16.8 °C 34750.5 hPa Calm     91 % 0 mm 0.0 W/m2 CLR
00:39 -16.1 °C -16.8 °C 34750.5 hPa Calm     91 % 0 mm 0.0 W/m2 CLR
00:44 -16.2 °C -17 °C 34750.5 hPa Calm     90 % 0 mm 0.0 W/m2 CLR
00:49 -16.2 °C -16.9 °C 34750.5 hPa Calm     91 % 0 mm 0.0 W/m2 CLR
00:54 -16.2 °C -16.9 °C 34740.4 hPa SSW 6 km/h   91 % 0 mm 0.0 W/m2 CLR
00:59 -16.2 °C -16.9 °C 34740.4 hPa Calm     91 % 0 mm 0.0 W/m2 CLR
01:04 -16.2 °C -17 °C 34740.4 hPa Calm     90 % 0 mm 0.0 W/m2 CLR
01:09 -16.3 °C -17.1 °C 34740.4 hPa Calm     90 % 0 mm 0.0 W/m2 CLR
01:14 -16.3 °C -17.2 °C 34740.4 hPa Calm     90 % 0 mm 0.0 W/m2 CLR
01:19 -16.4 °C -17.2 °C 34740.4 hPa Calm     91 % 0 mm 0.0 W/m2 CLR
01:24 -16.4 °C -17.2 °C 34740.4 hPa Calm     91 % 0 mm 0.0 W/m2 CLR
01:29 -16.5 °C -17.2 °C 34740.4 hPa Calm     91 % 0 mm 0.0 W/m2 CLR
01:34 -16.5 °C -17.2 °C 34740.4 hPa Calm     91 % 0 mm 0.0 W/m2 CLR
01:39 -16.4 °C -17.1 °C 34740.4 hPa SW 3.1 km/h 3.1 km/h 92 % 0 mm 0.0 W/m2 CLR
01:44 -16.3 °C -17 °C 34740.4 hPa Calm     92 % 0 mm 0.0 W/m2 CLR
01:49 -16.4 °C -17.2 °C 34740.4 hPa Calm     91 % 0 mm 0.0 W/m2 CLR
01:54 -16.5 °C -17.2 °C 34740.4 hPa Calm     91 % 0 mm 0.0 W/m2 CLR
01:59 -16.5 °C -17.3 °C 34740.4 hPa Calm     91 % 0 mm 0.0 W/m2 CLR
02:04 -16.6 °C -17.3 °C 34750.5 hPa Calm     91 % 0 mm 0.0 W/m2 CLR
02:09 -16.7 °C -17.3 °C 34750.5 hPa Calm     92 % 0 mm 0.0 W/m2 CLR
02:14 -16.7 °C -17.3 °C 34750.5 hPa Calm     92 % 0 mm 0.0 W/m2 CLR
02:19 -16.7 °C -17.4 °C 34740.4 hPa Calm     91 % 0 mm 0.0 W/m2 CLR
02:24 -16.7 °C -17.4 °C 34740.4 hPa Calm     91 % 0 mm 0.0 W/m2 CLR
02:29 -16.7 °C -17.4 °C 34740.4 hPa Calm     92 % 0 mm 0.0 W/m2 CLR
02:34 -16.7 °C -17.4 °C 34740.4 hPa Calm     92 % 0 mm 0.0 W/m2 CLR
02:39 -16.7 °C -17.4 °C 34740.4 hPa Calm     92 % 0 mm 0.0 W/m2 CLR
02:44 -16.7 °C -17.3 °C 34740.4 hPa Calm     92 % 0 mm 0.0 W/m2 CLR
02:49 -16.7 °C -17.3 °C 34740.4 hPa Calm     92 % 0 mm 0.0 W/m2 CLR
02:54 -16.6 °C -17.2 °C 34740.4 hPa SW 6 km/h   92 % 0 mm 0.0 W/m2 CLR
02:59 -16.5 °C -17.2 °C 34740.4 hPa Calm     92 % 0 mm 0.0 W/m2 CLR
03:04 -16.6 °C -17.3 °C 34740.4 hPa Calm     92 % 0 mm 0.0 W/m2 CLR
03:09 -16.7 °C -17.4 °C 34726.8 hPa Calm     92 % 0 mm 0.0 W/m2 CLR
03:14 -16.8 °C -17.4 °C 34726.8 hPa Calm     92 % 0 mm 0.0 W/m2 CLR
03:19 -16.8 °C -17.4 °C 34726.8 hPa Calm     92 % 0 mm 0.0 W/m2 CLR
03:24 -16.8 °C -17.4 °C 34726.8 hPa Calm     92 % 0 mm 0.0 W/m2 CLR
03:29 -16.8 °C -17.4 °C 34726.8 hPa Calm     92 % 0 mm 0.0 W/m2 CLR
03:34 -16.8 °C -17.4 °C 34726.8 hPa Calm     92 % 0 mm 0.0 W/m2 CLR
03:39 -16.9 °C -17.6 °C 34726.8 hPa Calm     92 % 0 mm 0.0 W/m2 CLR
03:44 -17 °C -17.6 °C 34726.8 hPa Calm     92 % 0 mm 0.0 W/m2 CLR
03:49 -16.9 °C -17.6 °C 34726.8 hPa Calm     92 % 0 mm 0.0 W/m2 CLR
03:54 -16.9 °C -17.4 °C 34726.8 hPa Calm     93 % 0 mm 0.0 W/m2 CLR
03:59 -16.8 °C -17.4 °C 34726.8 hPa Calm     93 % 0 mm 0.0 W/m2 CLR
04:04 -16.9 °C -17.6 °C 34726.8 hPa Calm     92 % 0 mm 0.0 W/m2 CLR
04:10 -16.9 °C -17.4 °C 34716.7 hPa Calm     93 % 0 mm 0.0 W/m2 CLR
04:15 -16.8 °C -17.4 °C 34726.8 hPa WSW 6 km/h 6 km/h 93 % 0 mm 0.0 W/m2 CLR
04:20 -16.7 °C -17.3 °C 34716.7 hPa Calm     93 % 0 mm 0.0 W/m2 CLR
04:25 -16.8 °C -17.3 °C 34716.7 hPa Calm     93 % 0 mm 0.0 W/m2 CLR
04:30 -16.8 °C -17.4 °C 34716.7 hPa Calm     92 % 0 mm 0.0 W/m2 CLR
04:35 -16.9 °C -17.6 °C 34716.7 hPa Calm     92 % 0 mm 0.0 W/m2 CLR
04:40 -17 °C -17.6 °C 34716.7 hPa Calm     92 % 0 mm 0.0 W/m2 CLR
04:45 -17.1 °C -17.7 °C 34726.8 hPa Calm     92 % 0 mm 0.0 W/m2 CLR
04:50 -16.9 °C -17.5 °C 34716.7 hPa WSW 9 km/h 9 km/h 93 % 0 mm 0.0 W/m2 CLR
04:55 -16.8 °C -17.3 °C 34726.8 hPa SW 9 km/h 9 km/h 93 % 0 mm 0.0 W/m2 CLR
05:00 -16.8 °C -17.3 °C 34726.8 hPa Calm     93 % 0 mm 0.0 W/m2 CLR
05:05 -16.8 °C -17.3 °C 34726.8 hPa Calm     93 % 0 mm 0.0 W/m2 CLR
05:10 -16.8 °C -17.3 °C 34726.8 hPa Calm     93 % 0 mm 0.0 W/m2 CLR
05:15 -16.9 °C -17.6 °C 34726.8 hPa Calm     92 % 0 mm 0.0 W/m2 CLR
05:20 -16.9 °C -17.6 °C 34726.8 hPa Calm     92 % 0 mm 0.0 W/m2 CLR
05:25 -17 °C -17.6 °C 34726.8 hPa Calm     92 % 0 mm 0.0 W/m2 CLR
05:30 -17 °C -17.6 °C 34726.8 hPa Calm     93 % 0 mm 0.0 W/m2 CLR
05:35 -17 °C -17.6 °C 34726.8 hPa Calm     93 % 7.62 mm 0.0 W/m2 RA
05:40 -17 °C -17.6 °C 34726.8 hPa Calm     93 % 7.62 mm 0.0 W/m2
05:45 -17 °C -17.6 °C 34726.8 hPa Calm     93 % 7.62 mm 0.0 W/m2 CLR
05:50 -17 °C -17.6 °C 34726.8 hPa Calm     93 % 7.62 mm 0.0 W/m2 CLR
05:55 -17 °C -17.6 °C 34726.8 hPa Calm     93 % 7.62 mm 0.0 W/m2 CLR
06:00 -16.9 °C -17.5 °C 34726.8 hPa Calm     93 % 7.62 mm 0.0 W/m2 CLR
06:05 -17 °C -17.6 °C 34726.8 hPa Calm     93 % 7.62 mm 0.0 W/m2 CLR
06:10 -17 °C -17.6 °C 34726.8 hPa Calm     93 % 7.62 mm 0.0 W/m2 CLR
06:15 -17 °C -17.6 °C 34726.8 hPa Calm     93 % 7.62 mm 0.0 W/m2 CLR
06:20 -17.1 °C -17.6 °C 34726.8 hPa Calm     93 % 7.62 mm 0.0 W/m2 CLR
06:25 -17.1 °C -17.6 °C 34726.8 hPa Calm     93 % 7.62 mm 0.0 W/m2 CLR
06:30 -17.1 °C -17.7 °C 34726.8 hPa Calm     93 % 7.62 mm 0.0 W/m2 CLR
06:35 -17.1 °C -17.6 °C 34726.8 hPa Calm     93 % 0 mm 0.0 W/m2 CLR
06:40 -17 °C -17.6 °C 34726.8 hPa Calm     93 % 0 mm 0.0 W/m2 CLR
06:45 -17 °C -17.6 °C 34726.8 hPa Calm     93 % 0 mm 0.0 W/m2 CLR
06:50 -17 °C -17.6 °C 34716.7 hPa Calm     93 % 0 mm 0.0 W/m2 CLR
06:55 -17.1 °C -17.6 °C 34726.8 hPa Calm     93 % 0 mm 0.0 W/m2 CLR
07:00 -17.1 °C -17.6 °C 34726.8 hPa Calm     93 % 0 mm 0.0 W/m2 CLR
07:05 -17 °C -17.6 °C 34726.8 hPa Calm     93 % 0 mm 0.0 W/m2 CLR
07:10 -16.9 °C -17.4 °C 34726.8 hPa Calm     93 % 0 mm 0.0 W/m2 CLR
07:15 -16.9 °C -17.4 °C 34726.8 hPa Calm     93 % 0 mm 0.0 W/m2 CLR
07:20 -16.9 °C -17.5 °C 34726.8 hPa Calm     93 % 0 mm 0.0 W/m2 CLR
07:25 -17 °C -17.6 °C 34726.8 hPa Calm     93 % 0 mm 0.0 W/m2 CLR
07:30 -17 °C -17.6 °C 34726.8 hPa Calm     93 % 0 mm 0.0 W/m2 CLR
07:40 -17.1 °C -17.6 °C 34740.4 hPa Calm     93 % 0 mm 0.0 W/m2 OVC
07:45 -17.1 °C -17.6 °C 34740.4 hPa Calm     93 % 0 mm 0.0 W/m2 OVC
07:50 -17.1 °C -17.6 °C 34740.4 hPa Calm     93 % 0 mm 7.0 W/m2 OVC
07:55 -17.1 °C -17.6 °C 34740.4 hPa Calm     93 % 0 mm 11.0 W/m2 BKN
08:00 -17 °C -17.6 °C 34740.4 hPa Calm     93 % 0 mm 14.0 W/m2 BKN
08:05 -16.9 °C -17.5 °C 34740.4 hPa Calm     93 % 0 mm 19.0 W/m2 BKN
08:10 -17 °C -17.6 °C 34740.4 hPa Calm     93 % 0 mm 21.0 W/m2 BKN
08:15 -16.9 °C -17.4 °C 34740.4 hPa Calm     93 % 0 mm 25.0 W/m2 BKN
08:20 -16.8 °C -17.4 °C 34740.4 hPa Calm     93 % 0 mm 30.0 W/m2 BKN
08:25 -16.8 °C -17.4 °C 34740.4 hPa Calm     93 % 0 mm 35.0 W/m2 BKN
08:30 -16.8 °C -17.3 °C 34740.4 hPa Calm     93 % 0 mm 49.0 W/m2 SCT
08:35 -16.7 °C -17.3 °C 34740.4 hPa Calm     93 % 0 mm 63.0 W/m2 SCT
08:40 -16.6 °C -17.2 °C 34740.4 hPa Calm     93 % 0 mm 74.0 W/m2 FEW
08:45 -16.6 °C -17.2 °C 34740.4 hPa Calm     93 % 0 mm 86.0 W/m2 FEW
08:50 -16.4 °C -16.9 °C 34750.5 hPa Calm     94 % 0 mm 105.0 W/m2 FEW
08:55 -16.3 °C -16.8 °C 34750.5 hPa Calm     94 % 0 mm 128.0 W/m2 CLR
09:00 -16.2 °C -16.7 °C 34740.4 hPa Calm     94 % 0 mm 142.0 W/m2 CLR
09:05 -15.9 °C -16.5 °C 34740.4 hPa Calm     93 % 0 mm 118.0 W/m2 CLR
09:10 -15.8 °C -16.4 °C 34740.4 hPa Calm     93 % 0 mm 176.0 W/m2 CLR
09:15 -15.6 °C -16.1 °C 34740.4 hPa Calm     94 % 0 mm 197.0 W/m2 CLR
09:20 -15.3 °C -15.9 °C 34740.4 hPa Calm     93 % 0 mm 220.0 W/m2 CLR
09:25 -15.1 °C -15.7 °C 34740.4 hPa Calm     93 % 0 mm 236.0 W/m2 CLR
09:30 -14.8 °C -15.3 °C 34740.4 hPa Calm     93 % 0 mm 253.0 W/m2 CLR
09:35 -14.5 °C -15.2 °C 34740.4 hPa Calm     91 % 0 mm 262.0 W/m2 CLR
09:40 -14.3 °C -15.1 °C 34740.4 hPa Calm     90 % 0 mm 276.0 W/m2 CLR
09:41 -14.2 °C -15.1 °C 34740.4 hPa Calm     90 % 0 mm 276.0 W/m2 CLR
09:46 -13.9 °C -14.9 °C 34740.4 hPa Calm     88 % 0 mm 287.0 W/m2 CLR
09:51 -13.8 °C -15.1 °C 34726.8 hPa Calm     85 % 0 mm 301.0 W/m2 CLR
09:56 -13.7 °C -15.1 °C 34726.8 hPa Calm     84 % 0 mm 309.0 W/m2 CLR
10:01 -13.5 °C -15 °C 34726.8 hPa Calm     83 % 0 mm 323.0 W/m2 CLR
10:06 -13.3 °C -15.1 °C 34726.8 hPa Calm     80 % 0 mm 313.0 W/m2 CLR
10:11 -13.1 °C -15.1 °C 34716.7 hPa Calm     79 % 0 mm 350.0 W/m2 CLR
10:16 -12.9 °C -14.9 °C 34716.7 hPa Calm     78 % 0 mm 369.0 W/m2 CLR
10:21 -12.6 °C -14.7 °C 34716.7 hPa Calm     77 % 0 mm 385.0 W/m2 CLR
10:26 -12.3 °C -14.8 °C 34716.7 hPa Calm     74 % 0 mm 387.0 W/m2 CLR
10:31 -12.2 °C -14.8 °C 34716.7 hPa Calm     72 % 0 mm 403.0 W/m2 CLR
10:41 -11.8 °C -14.6 °C 34716.7 hPa Calm     71 % 0 mm 424.0 W/m2 CLR
10:46 -11.6 °C -14.6 °C 34716.7 hPa Calm     69 % 0 mm 434.0 W/m2 CLR
10:51 -11.3 °C -14.7 °C 34716.7 hPa Calm     66 % 0 mm 457.0 W/m2 CLR
10:56 -11 °C -14.6 °C 34716.7 hPa Calm     65 % 0 mm 461.0 W/m2 CLR
11:01 -10.9 °C -14.6 °C 34703.1 hPa Calm     64 % 0 mm 464.0 W/m2 CLR
11:06 -10.9 °C -14.7 °C 34703.1 hPa Calm     63 % 0 mm 452.0 W/m2 CLR
11:11 -10.8 °C -14.5 °C 34703.1 hPa Calm     64 % 0 mm 476.0 W/m2 CLR
11:16 -10.7 °C -14.4 °C 34703.1 hPa ENE 7.7 km/h 7.7 km/h 64 % 0 mm 466.0 W/m2 CLR
11:21 -10.7 °C -14.4 °C 34703.1 hPa ENE 15 km/h 15 km/h 64 % 0 mm 496.0 W/m2 CLR
11:26 -10.7 °C -14.3 °C 34703.1 hPa NE 15 km/h 15 km/h 65 % 0 mm 496.0 W/m2 CLR
11:31 -10.7 °C -14.3 °C 34703.1 hPa NE 18.2 km/h 18.2 km/h 65 % 0 mm 512.0 W/m2 CLR
11:36 -10.8 °C -14.2 °C 34703.1 hPa NE 20.9 km/h 20.9 km/h 66 % 0 mm 482.0 W/m2 CLR
11:41 -10.8 °C -14.3 °C 34703.1 hPa NE 17.9 km/h 17.9 km/h 66 % 0 mm 420.0 W/m2 CLR
11:46 -10.9 °C -14.3 °C 34703.1 hPa ENE 20.9 km/h 20.9 km/h 66 % 0 mm 431.0 W/m2 CLR
11:51 -10.9 °C -14.2 °C 34703.1 hPa East 15.6 km/h 15.6 km/h 67 % 0 mm 454.0 W/m2 CLR
11:56 -10.9 °C -14.3 °C 34703.1 hPa East 15 km/h 15 km/h 67 % 0 mm 450.0 W/m2 CLR
12:01 -10.9 °C -14.3 °C 34703.1 hPa ENE 18.2 km/h 18.2 km/h 67 % 0 mm 411.0 W/m2 CLR
12:06 -11 °C -14.3 °C 34703.1 hPa NE 15 km/h 15 km/h 67 % 0 mm 476.0 W/m2 CLR
12:11 -10.9 °C -14.2 °C 34703.1 hPa NE 18.2 km/h 18.2 km/h 67 % 0 mm 531.0 W/m2 CLR
12:16 -10.8 °C -14.2 °C 34703.1 hPa ENE 12.9 km/h 12.9 km/h 66 % 0 mm 548.0 W/m2 CLR
12:21 -10.7 °C -14.3 °C 34693 hPa ENE 11.9 km/h 11.9 km/h 65 % 0 mm 596.0 W/m2 CLR
12:26 -10.6 °C -14.1 °C 34693 hPa ENE 11.9 km/h 11.9 km/h 65 % 0 mm 580.0 W/m2 CLR
12:31 -10.4 °C -14.1 °C 34693 hPa ENE 15 km/h 15 km/h 64 % 0 mm 538.0 W/m2 CLR
12:36 -10.3 °C -14.1 °C 34693 hPa East 12.9 km/h 12.9 km/h 64 % 0 mm 559.0 W/m2 CLR
12:41 -10.3 °C -14.3 °C 34693 hPa East 9 km/h 9 km/h 62 % 0 mm 548.0 W/m2 CLR
12:46 -10.2 °C -14.2 °C 34693 hPa East 15 km/h 15 km/h 62 % 0 mm 515.0 W/m2 CLR
12:51 -10.2 °C -14.2 °C 34682.8 hPa ENE 9 km/h 9 km/h 62 % 0 mm 631.0 W/m2 CLR
12:56 -10.1 °C -14.2 °C 34682.8 hPa ENE 11.9 km/h 11.9 km/h 61 % 0 mm 638.0 W/m2 CLR
13:01 -9.9 °C -14.1 °C 34682.8 hPa ENE 6 km/h 6 km/h 61 % 0 mm 629.0 W/m2 CLR
13:06 -9.8 °C -14.1 °C 34682.8 hPa Calm     60 % 0 mm 629.0 W/m2 CLR
13:11 -9.7 °C -14.1 °C 34669.3 hPa NE 9 km/h   59 % 0 mm 610.0 W/m2 CLR
13:12 -9.7 °C -14 °C 34669.3 hPa NE 9 km/h   60 % 0 mm 610.0 W/m2 CLR
13:17 -9.6 °C -14.1 °C 34669.3 hPa Calm     58 % 0 mm 613.0 W/m2 CLR
13:22 -9.6 °C -14.2 °C 34669.3 hPa Calm     57 % 0 mm 615.0 W/m2 CLR
13:27 -9.4 °C -14.1 °C 34669.3 hPa Calm     57 % 0 mm 599.0 W/m2 CLR
13:32 -9.2 °C -14.2 °C 34659.1 hPa Calm     55 % 0 mm 582.0 W/m2 CLR
13:37 -9 °C -14.2 °C 34659.1 hPa Calm     54 % 0 mm 606.0 W/m2 CLR
13:42 -8.9 °C -14.4 °C 34645.6 hPa Calm     52 % 0 mm 547.0 W/m2 CLR
13:47 -8.9 °C -14.3 °C 34645.6 hPa Calm     53 % 0 mm 603.0 W/m2 CLR
13:52 -8.7 °C -14.1 °C 34645.6 hPa Calm     53 % 0 mm 555.0 W/m2 CLR
13:57 -8.4 °C -14.3 °C 34645.6 hPa ENE 6 km/h 6 km/h 50 % 0 mm 605.0 W/m2 CLR
14:02 -8.6 °C -14.6 °C 34635.4 hPa Calm     49 % 0 mm 591.0 W/m2 CLR
14:07 -8.6 °C -14.4 °C 34635.4 hPa NE 3.1 km/h   50 % 0 mm 580.0 W/m2 CLR
14:12 -8.6 °C -14.4 °C 34625.2 hPa Calm     50 % 0 mm 513.0 W/m2 CLR
14:17 -8.6 °C -14.4 °C 34625.2 hPa Calm     50 % 0 mm 520.0 W/m2 CLR
14:22 -8.5 °C -14.2 °C 34625.2 hPa Calm     51 % 0 mm 559.0 W/m2 CLR
14:27 -8.4 °C -14.3 °C 34625.2 hPa NNE 6 km/h 6 km/h 49 % 0 mm 529.0 W/m2 CLR
14:32 -8.3 °C -14.5 °C 34625.2 hPa Calm     48 % 0 mm 494.0 W/m2 CLR
14:37 -8.4 °C -14.4 °C 34611.7 hPa Calm     49 % 0 mm 513.0 W/m2 CLR
14:42 -8.3 °C -14.5 °C 34611.7 hPa Calm     48 % 0 mm 517.0 W/m2 CLR
14:47 -8.2 °C -14.3 °C 34611.7 hPa NNE 6 km/h 6 km/h 48 % 0 mm 401.0 W/m2 CLR
14:52 -8.2 °C -14.3 °C 34601.5 hPa ENE 6 km/h 6 km/h 49 % 0 mm 464.0 W/m2 CLR
14:57 -8.3 °C -14.1 °C 34601.5 hPa ENE 6 km/h 6 km/h 50 % 0 mm 471.0 W/m2 CLR
15:02 -8.3 °C -14.2 °C 34601.5 hPa Calm     50 % 0 mm 517.0 W/m2 CLR
15:07 -8.3 °C -13.8 °C 34601.5 hPa ENE 9 km/h 9 km/h 52 % 0 mm 515.0 W/m2 CLR
15:12 -8.3 °C -14.1 °C 34601.5 hPa NNE 6 km/h   50 % 0 mm 464.0 W/m2 CLR
15:17 -8.3 °C -13.9 °C 34591.4 hPa NNE 9 km/h 9 km/h 51 % 0 mm 459.0 W/m2 CLR
15:22 -8.2 °C -13.9 °C 34591.4 hPa ENE 17.9 km/h 17.9 km/h 51 % 0 mm 457.0 W/m2 CLR
15:27 -8.2 °C -13.9 °C 34591.4 hPa ENE 9 km/h 9 km/h 51 % 0 mm 452.0 W/m2 CLR
15:32 -8.3 °C -13.9 °C 34591.4 hPa NE 12.9 km/h 12.9 km/h 51 % 0 mm 438.0 W/m2 CLR
15:37 -8.3 °C -13.9 °C 34591.4 hPa NE 11.9 km/h 11.9 km/h 51 % 0 mm 429.0 W/m2 CLR
15:42 -8.2 °C -14.1 °C 34591.4 hPa NNE 9 km/h 9 km/h 50 % 0 mm 415.0 W/m2 CLR
15:47 -8.3 °C -14.3 °C 34577.8 hPa NNE 11.9 km/h 11.9 km/h 49 % 0 mm 401.0 W/m2 CLR
15:52 -8.3 °C -14 °C 34577.8 hPa North 15 km/h 15 km/h 51 % 0 mm 385.0 W/m2 CLR
15:57 -8.3 °C -13.9 °C 34577.8 hPa NE 18.2 km/h 18.2 km/h 51 % 0 mm 376.0 W/m2 CLR
16:02 -8.3 °C -14 °C 34577.8 hPa NNE 17.9 km/h 17.9 km/h 51 % 0 mm 360.0 W/m2 CLR
16:07 -8.3 °C -13.8 °C 34577.8 hPa NE 15 km/h 15 km/h 52 % 0 mm 330.0 W/m2 CLR
16:12 -8.3 °C -14 °C 34577.8 hPa Calm   0.3 km/h 51 % 0 mm 323.0 W/m2 CLR
16:17 -8.3 °C -13.8 °C 34577.8 hPa NNE 11.9 km/h 11.9 km/h 52 % 0 mm 294.0 W/m2 CLR
16:22 -8.3 °C -14 °C 34577.8 hPa NE 11.9 km/h 11.9 km/h 51 % 0 mm 301.0 W/m2 CLR
16:27 -8.3 °C -14 °C 34567.7 hPa North 6 km/h 6 km/h 51 % 0 mm 279.0 W/m2 CLR
16:32 -8.4 °C -14.1 °C 34567.7 hPa NNE 15 km/h 15 km/h 51 % 0 mm 271.0 W/m2 CLR
16:37 -8.4 °C -14.2 °C 34567.7 hPa NNE 17.9 km/h 17.9 km/h 50 % 0 mm 232.0 W/m2 CLR
16:42 -8.4 °C -14.2 °C 34567.7 hPa NNE 11.9 km/h 11.9 km/h 50 % 0 mm 218.0 W/m2 CLR
16:47 -8.4 °C -14.3 °C 34567.7 hPa Calm     50 % 0 mm 209.0 W/m2 CLR
16:52 -8.4 °C -14.2 °C 34567.7 hPa NNE 9 km/h 9 km/h 50 % 0 mm 202.0 W/m2 CLR
16:57 -8.4 °C -14.2 °C 34567.7 hPa NNE 9 km/h 9 km/h 50 % 0 mm 199.0 W/m2 CLR
17:02 -8.4 °C -14.2 °C 34567.7 hPa NE 9 km/h 9 km/h 50 % 0 mm 190.0 W/m2 CLR
17:07 -8.4 °C -14.1 °C 34554.1 hPa NNE 9 km/h 9 km/h 51 % 0 mm 176.0 W/m2 CLR
17:12 -8.4 °C -14.3 °C 34554.1 hPa NE 11.9 km/h 11.9 km/h 50 % 0 mm 165.0 W/m2 CLR
17:17 -8.5 °C -14.3 °C 34554.1 hPa Calm     50 % 0 mm 158.0 W/m2 CLR
17:22 -8.5 °C -14.2 °C 34554.1 hPa Calm     51 % 0 mm 146.0 W/m2 CLR
17:27 -8.5 °C -14 °C 34554.1 hPa Calm     52 % 0 mm 132.0 W/m2 CLR
17:28 -8.5 °C -14 °C 34554.1 hPa Calm     52 % 0 mm 128.0 W/m2 CLR
17:33 -8.5 °C -14.2 °C 34554.1 hPa Calm     51 % 0 mm 114.0 W/m2 CLR
17:38 -8.6 °C -14.1 °C 34554.1 hPa Calm     52 % 0 mm 102.0 W/m2 CLR
17:43 -8.6 °C -14.1 °C 34554.1 hPa Calm     52 % 0 mm 93.0 W/m2 CLR
17:48 -8.7 °C -14 °C 34554.1 hPa Calm     53 % 0 mm 86.0 W/m2 CLR
17:53 -8.7 °C -14.2 °C 34554.1 hPa NNE 2.6 km/h 2.6 km/h 52 % 0 mm 77.0 W/m2 FEW
17:58 -8.7 °C -14.1 °C 34554.1 hPa Calm     53 % 0 mm 67.0 W/m2 FEW
18:03 -8.8 °C -13.8 °C 34554.1 hPa Calm     55 % 0 mm 56.0 W/m2 SCT
18:08 -8.9 °C -14.1 °C 34554.1 hPa Calm     54 % 0 mm 46.0 W/m2 SCT
18:13 -9.1 °C -14.2 °C 34554.1 hPa Calm     54 % 0 mm 39.0 W/m2 BKN
18:18 -9.1 °C -14.3 °C 34554.1 hPa Calm     54 % 0 mm 32.0 W/m2 BKN
18:23 -9.2 °C -14.2 °C 34554.1 hPa Calm     55 % 0 mm 25.0 W/m2 BKN
18:28 -9.3 °C -14.3 °C 34554.1 hPa Calm     55 % 0 mm 18.0 W/m2 BKN
18:33 -9.3 °C -14.2 °C 34554.1 hPa Calm     56 % 0 mm 12.0 W/m2 BKN
18:38 -9.4 °C -14.2 °C 34554.1 hPa Calm     56 % 0 mm 9.0 W/m2 BKN
18:43 -9.5 °C -14.3 °C 34554.1 hPa Calm     56 % 0 mm 5.0 W/m2 OVC
18:48 -9.6 °C -14.3 °C 34554.1 hPa Calm     57 % 0 mm 0.0 W/m2 OVC
18:53 -9.7 °C -14.2 °C 34554.1 hPa Calm     58 % 0 mm 0.0 W/m2 CLR
18:58 -9.8 °C -14.3 °C 34567.7 hPa Calm     58 % 0 mm 0.0 W/m2 CLR
19:03 -9.9 °C -14 °C 34567.7 hPa Calm     61 % 0 mm 0.0 W/m2 CLR
19:08 -10.1 °C -14 °C 34567.7 hPa Calm     62 % 0 mm 0.0 W/m2 CLR
19:13 -10.2 °C -14.1 °C 34567.7 hPa Calm     63 % 0 mm 0.0 W/m2 CLR
19:18 -10.4 °C -14.1 °C 34567.7 hPa Calm     64 % 0 mm 0.0 W/m2 CLR
19:23 -10.6 °C -13.9 °C 34567.7 hPa Calm     67 % 0 mm 0.0 W/m2 CLR
19:28 -10.9 °C -14.1 °C 34567.7 hPa Calm     68 % 0 mm 0.0 W/m2 CLR
19:38 -11.2 °C -13.9 °C 34567.7 hPa Calm     72 % 0 mm 0.0 W/m2 CLR
19:43 -11.4 °C -14.1 °C 34567.7 hPa Calm     73 % 0 mm 0.0 W/m2 CLR
19:48 -11.6 °C -14.1 °C 34577.8 hPa Calm     74 % 0 mm 0.0 W/m2 CLR
19:53 -11.7 °C -14.1 °C 34577.8 hPa Calm     75 % 0 mm 0.0 W/m2 CLR
19:58 -11.8 °C -14.2 °C 34577.8 hPa Calm     75 % 0 mm 0.0 W/m2 CLR
20:03 -12.1 °C -14.3 °C 34577.8 hPa Calm     76 % 0 mm 0.0 W/m2 CLR
20:08 -12.2 °C -14.3 °C 34577.8 hPa Calm     78 % 0 mm 0.0 W/m2 CLR
20:13 -12.3 °C -14.2 °C 34577.8 hPa Calm     79 % 0 mm 0.0 W/m2 CLR
20:19 -12.4 °C -14.3 °C 34577.8 hPa Calm     79 % 0 mm 0.0 W/m2 CLR
20:23 -12.4 °C -14.3 °C 34577.8 hPa Calm     79 % 0 mm 0.0 W/m2 CLR
20:28 -12.5 °C -14.3 °C 34577.8 hPa Calm     80 % 0 mm 0.0 W/m2 CLR
20:33 -12.6 °C -14.4 °C 34577.8 hPa Calm     80 % 0 mm 0.0 W/m2 CLR
20:34 -12.6 °C -14.4 °C 34577.8 hPa Calm     80 % 0 mm 0.0 W/m2 CLR
20:39 -12.7 °C -14.4 °C 34577.8 hPa Calm     81 % 0 mm 0.0 W/m2 CLR
20:44 -12.8 °C -14.5 °C 34577.8 hPa Calm     81 % 0 mm 0.0 W/m2 CLR
20:49 -12.8 °C -14.4 °C 34591.4 hPa Calm     82 % 0 mm 0.0 W/m2 CLR
20:54 -12.9 °C -14.5 °C 34591.4 hPa Calm     82 % 0 mm 0.0 W/m2 CLR
20:59 -12.9 °C -14.5 °C 34591.4 hPa Calm     82 % 0 mm 0.0 W/m2 CLR
21:04 -13 °C -14.5 °C 34591.4 hPa Calm     83 % 0 mm 0.0 W/m2 CLR
21:09 -13.1 °C -14.6 °C 34591.4 hPa Calm     83 % 0 mm 0.0 W/m2 CLR
21:14 -13.1 °C -14.6 °C 34591.4 hPa Calm     83 % 0 mm 0.0 W/m2 CLR
21:19 -13.2 °C -14.7 °C 34591.4 hPa Calm     83 % 0 mm 0.0 W/m2 CLR
21:24 -13.2 °C -14.7 °C 34591.4 hPa Calm     83 % 0 mm 0.0 W/m2 CLR
21:29 -13.3 °C -14.7 °C 34591.4 hPa Calm     84 % 0 mm 0.0 W/m2 CLR
21:34 -13.3 °C -14.8 °C 34591.4 hPa Calm     84 % 0 mm 0.0 W/m2 CLR
21:39 -13.4 °C -14.8 °C 34591.4 hPa Calm     84 % 0 mm 0.0 W/m2 CLR
21:44 -13.5 °C -14.9 °C 34591.4 hPa Calm     84 % 0 mm 0.0 W/m2 CLR
21:49 -13.5 °C -14.8 °C 34591.4 hPa SW 9 km/h 9 km/h 85 % 0 mm 0.0 W/m2 CLR
21:54 -13.5 °C -14.8 °C 34591.4 hPa Calm     85 % 0 mm 0.0 W/m2 CLR
21:59 -13.6 °C -14.9 °C 34591.4 hPa Calm     85 % 0 mm 0.0 W/m2 CLR
22:04 -13.6 °C -14.9 °C 34591.4 hPa Calm     85 % 0 mm 0.0 W/m2 CLR
22:09 -13.6 °C -14.9 °C 34591.4 hPa Calm     85 % 0 mm 0.0 W/m2 CLR
22:14 -13.7 °C -14.9 °C 34591.4 hPa Calm     85 % 0 mm 0.0 W/m2 CLR
22:19 -13.7 °C -14.9 °C 34591.4 hPa Calm     85 % 0 mm 0.0 W/m2 CLR
22:24 -13.7 °C -14.9 °C 34591.4 hPa Calm     85 % 0 mm 0.0 W/m2 CLR
22:29 -13.8 °C -15.1 °C 34591.4 hPa Calm     85 % 0 mm 0.0 W/m2 CLR
22:34 -13.8 °C -15.1 °C 34591.4 hPa Calm     86 % 0 mm 0.0 W/m2 CLR
22:39 -13.8 °C -15.1 °C 34591.4 hPa Calm     86 % 0 mm 0.0 W/m2 CLR
22:44 -13.8 °C -15 °C 34591.4 hPa Calm     86 % 0 mm 0.0 W/m2 CLR
22:49 -13.8 °C -15.1 °C 34591.4 hPa Calm     86 % 0 mm 0.0 W/m2 CLR
22:54 -13.8 °C -15.1 °C 34591.4 hPa Calm     86 % 0 mm 0.0 W/m2 CLR
22:59 -13.9 °C -15.1 °C 34591.4 hPa Calm     86 % 0 mm 0.0 W/m2 CLR
23:04 -13.9 °C -15.1 °C 34591.4 hPa Calm     86 % 0 mm 0.0 W/m2 CLR
23:09 -13.9 °C -15.1 °C 34591.4 hPa Calm     87 % 0 mm 0.0 W/m2 CLR
23:14 -14 °C -15.1 °C 34591.4 hPa Calm     87 % 0 mm 0.0 W/m2 CLR
23:19 -14.1 °C -15.2 °C 34577.8 hPa Calm     87 % 0 mm 0.0 W/m2 CLR
23:24 -14.1 °C -15.2 °C 34577.8 hPa Calm     87 % 0 mm 0.0 W/m2 CLR
23:29 -14.1 °C -15.1 °C 34577.8 hPa Calm     88 % 0 mm 0.0 W/m2 CLR
23:34 -14.1 °C -15.2 °C 34577.8 hPa Calm     87 % 0 mm 0.0 W/m2 CLR
23:39 -14.1 °C -15.2 °C 34577.8 hPa Calm     87 % 0 mm 0.0 W/m2 CLR
23:44 -14.1 °C -15.2 °C 34591.4 hPa Calm     87 % 0 mm 0.0 W/m2 CLR
23:49 -14.2 °C -15.3 °C 34577.8 hPa Calm     87 % 0 mm 0.0 W/m2 CLR
23:54 -14.2 °C -15.2 °C 34577.8 hPa Calm     88 % 0 mm 0.0 W/m2 CLR
23:59 -14.2 °C -15.2 °C 34577.8 hPa SW 6 km/h 6 km/h 88 % 0 mm 0.0 W/m2 CLR
Lo Temps de Massalio
Compliments of Weather Underground - 1.25 mb